sensor_id;sensor_type;location;lat;lon;timestamp;P1;durP1;ratioP1;P2;durP2;ratioP2
1020;SDS011;499;42.648;23.270;2022-10-31T00:00:14;1.70;;;1.30;;
1020;SDS011;499;42.648;23.270;2022-10-31T00:02:41;1.73;;;1.10;;
1020;SDS011;499;42.648;23.270;2022-10-31T00:05:09;1.30;;;0.90;;
1020;SDS011;499;42.648;23.270;2022-10-31T00:07:37;1.40;;;1.07;;
1020;SDS011;499;42.648;23.270;2022-10-31T00:10:05;1.47;;;1.37;;
1020;SDS011;499;42.648;23.270;2022-10-31T00:12:33;1.40;;;1.10;;
1020;SDS011;499;42.648;23.270;2022-10-31T00:15:00;1.17;;;0.70;;
1020;SDS011;499;42.648;23.270;2022-10-31T00:17:26;1.20;;;0.80;;
1020;SDS011;499;42.648;23.270;2022-10-31T00:19:53;1.60;;;1.23;;
1020;SDS011;499;42.648;23.270;2022-10-31T00:22:21;1.30;;;0.97;;
1020;SDS011;499;42.648;23.270;2022-10-31T00:24:50;2.10;;;1.10;;
1020;SDS011;499;42.648;23.270;2022-10-31T00:27:17;2.00;;;1.20;;
1020;SDS011;499;42.648;23.270;2022-10-31T00:29:44;1.50;;;1.20;;
1020;SDS011;499;42.648;23.270;2022-10-31T00:32:11;1.30;;;0.87;;
1020;SDS011;499;42.648;23.270;2022-10-31T00:34:38;2.80;;;1.77;;
1020;SDS011;499;42.648;23.270;2022-10-31T00:37:05;1.40;;;1.10;;
1020;SDS011;499;42.648;23.270;2022-10-31T00:39:32;1.43;;;1.10;;
1020;SDS011;499;42.648;23.270;2022-10-31T00:42:00;1.53;;;1.23;;
1020;SDS011;499;42.648;23.270;2022-10-31T00:44:27;1.30;;;1.00;;
1020;SDS011;499;42.648;23.270;2022-10-31T00:46:54;1.17;;;0.70;;
1020;SDS011;499;42.648;23.270;2022-10-31T00:49:21;3.43;;;1.00;;
1020;SDS011;499;42.648;23.270;2022-10-31T00:51:48;1.40;;;1.13;;
1020;SDS011;499;42.648;23.270;2022-10-31T00:54:15;2.13;;;1.20;;
1020;SDS011;499;42.648;23.270;2022-10-31T00:56:42;1.10;;;0.70;;
1020;SDS011;499;42.648;23.270;2022-10-31T00:59:10;1.93;;;1.23;;
1020;SDS011;499;42.648;23.270;2022-10-31T01:01:37;1.27;;;1.00;;
1020;SDS011;499;42.648;23.270;2022-10-31T01:04:04;1.30;;;0.77;;
1020;SDS011;499;42.648;23.270;2022-10-31T01:06:31;1.70;;;1.23;;
1020;SDS011;499;42.648;23.270;2022-10-31T01:08:58;2.53;;;1.47;;
1020;SDS011;499;42.648;23.270;2022-10-31T01:11:25;1.73;;;1.00;;
1020;SDS011;499;42.648;23.270;2022-10-31T01:13:53;1.87;;;1.00;;
1020;SDS011;499;42.648;23.270;2022-10-31T01:16:22;1.30;;;0.97;;
1020;SDS011;499;42.648;23.270;2022-10-31T01:18:50;1.93;;;1.43;;
1020;SDS011;499;42.648;23.270;2022-10-31T01:21:18;2.00;;;1.60;;
1020;SDS011;499;42.648;23.270;2022-10-31T01:23:47;1.23;;;1.00;;
1020;SDS011;499;42.648;23.270;2022-10-31T01:26:15;2.07;;;1.17;;
1020;SDS011;499;42.648;23.270;2022-10-31T01:28:45;1.73;;;1.07;;
1020;SDS011;499;42.648;23.270;2022-10-31T01:31:13;1.97;;;1.20;;
1020;SDS011;499;42.648;23.270;2022-10-31T01:33:42;2.00;;;1.43;;
1020;SDS011;499;42.648;23.270;2022-10-31T01:36:11;1.60;;;1.13;;
1020;SDS011;499;42.648;23.270;2022-10-31T01:38:43;1.50;;;1.23;;
1020;SDS011;499;42.648;23.270;2022-10-31T01:41:11;1.50;;;1.00;;
1020;SDS011;499;42.648;23.270;2022-10-31T01:43:46;1.40;;;0.90;;
1020;SDS011;499;42.648;23.270;2022-10-31T01:46:17;1.30;;;0.97;;
1020;SDS011;499;42.648;23.270;2022-10-31T01:48:48;1.60;;;1.20;;
1020;SDS011;499;42.648;23.270;2022-10-31T01:51:16;1.30;;;1.00;;
1020;SDS011;499;42.648;23.270;2022-10-31T01:53:46;1.20;;;0.80;;
1020;SDS011;499;42.648;23.270;2022-10-31T01:56:14;1.30;;;0.97;;
1020;SDS011;499;42.648;23.270;2022-10-31T01:58:43;1.40;;;1.20;;
1020;SDS011;499;42.648;23.270;2022-10-31T02:01:12;1.40;;;1.00;;
1020;SDS011;499;42.648;23.270;2022-10-31T02:03:40;1.20;;;0.80;;
1020;SDS011;499;42.648;23.270;2022-10-31T02:06:10;1.70;;;1.03;;
1020;SDS011;499;42.648;23.270;2022-10-31T02:08:45;2.00;;;1.73;;
1020;SDS011;499;42.648;23.270;2022-10-31T02:11:13;1.60;;;1.13;;
1020;SDS011;499;42.648;23.270;2022-10-31T02:13:41;1.57;;;1.00;;
1020;SDS011;499;42.648;23.270;2022-10-31T02:16:08;1.50;;;1.30;;
1020;SDS011;499;42.648;23.270;2022-10-31T02:18:36;2.20;;;1.30;;
1020;SDS011;499;42.648;23.270;2022-10-31T02:21:06;1.67;;;1.20;;
1020;SDS011;499;42.648;23.270;2022-10-31T02:23:45;1.53;;;1.10;;
1020;SDS011;499;42.648;23.270;2022-10-31T02:26:44;2.20;;;1.20;;
1020;SDS011;499;42.648;23.270;2022-10-31T02:32:32;1.70;;;1.43;;
1020;SDS011;499;42.648;23.270;2022-10-31T02:35:06;1.60;;;1.10;;
1020;SDS011;499;42.648;23.270;2022-10-31T02:37:42;1.30;;;1.03;;
1020;SDS011;499;42.648;23.270;2022-10-31T02:40:15;1.47;;;1.00;;
1020;SDS011;499;42.648;23.270;2022-10-31T02:42:49;2.50;;;2.13;;
1020;SDS011;499;42.648;23.270;2022-10-31T02:45:25;1.63;;;1.10;;
1020;SDS011;499;42.648;23.270;2022-10-31T02:47:59;1.37;;;1.17;;
1020;SDS011;499;42.648;23.270;2022-10-31T02:50:30;1.77;;;1.13;;
1020;SDS011;499;42.648;23.270;2022-10-31T02:53:00;2.23;;;1.57;;
1020;SDS011;499;42.648;23.270;2022-10-31T02:55:48;1.60;;;1.40;;
1020;SDS011;499;42.648;23.270;2022-10-31T02:58:21;1.67;;;1.17;;
1020;SDS011;499;42.648;23.270;2022-10-31T03:01:07;4.90;;;1.70;;
1020;SDS011;499;42.648;23.270;2022-10-31T03:03:48;1.90;;;1.50;;
1020;SDS011;499;42.648;23.270;2022-10-31T03:06:24;2.67;;;2.10;;
1020;SDS011;499;42.648;23.270;2022-10-31T03:08:59;1.47;;;1.03;;
1020;SDS011;499;42.648;23.270;2022-10-31T03:11:31;1.53;;;1.07;;
1020;SDS011;499;42.648;23.270;2022-10-31T03:14:05;1.37;;;1.20;;
1020;SDS011;499;42.648;23.270;2022-10-31T03:16:39;1.50;;;1.00;;
1020;SDS011;499;42.648;23.270;2022-10-31T03:19:14;1.70;;;1.30;;
1020;SDS011;499;42.648;23.270;2022-10-31T03:21:46;1.33;;;1.00;;
1020;SDS011;499;42.648;23.270;2022-10-31T03:24:19;1.63;;;1.33;;
1020;SDS011;499;42.648;23.270;2022-10-31T03:26:49;2.00;;;1.40;;
1020;SDS011;499;42.648;23.270;2022-10-31T03:29:20;1.47;;;1.30;;
1020;SDS011;499;42.648;23.270;2022-10-31T03:31:51;2.27;;;1.50;;
1020;SDS011;499;42.648;23.270;2022-10-31T03:34:22;2.77;;;1.50;;
1020;SDS011;499;42.648;23.270;2022-10-31T03:36:50;2.13;;;1.43;;
1020;SDS011;499;42.648;23.270;2022-10-31T03:39:19;2.13;;;1.77;;
1020;SDS011;499;42.648;23.270;2022-10-31T03:41:49;1.73;;;1.27;;
1020;SDS011;499;42.648;23.270;2022-10-31T03:44:21;1.60;;;1.33;;
1020;SDS011;499;42.648;23.270;2022-10-31T03:46:50;2.33;;;1.30;;
1020;SDS011;499;42.648;23.270;2022-10-31T03:49:17;1.53;;;1.03;;
1020;SDS011;499;42.648;23.270;2022-10-31T03:51:47;1.73;;;1.27;;
1020;SDS011;499;42.648;23.270;2022-10-31T03:54:19;1.27;;;0.97;;
1020;SDS011;499;42.648;23.270;2022-10-31T03:56:52;2.23;;;1.57;;
1020;SDS011;499;42.648;23.270;2022-10-31T03:59:24;2.03;;;1.50;;
1020;SDS011;499;42.648;23.270;2022-10-31T04:01:57;2.20;;;1.80;;
1020;SDS011;499;42.648;23.270;2022-10-31T04:04:29;1.87;;;1.67;;
1020;SDS011;499;42.648;23.270;2022-10-31T04:06:58;1.87;;;1.50;;
1020;SDS011;499;42.648;23.270;2022-10-31T04:09:27;3.67;;;1.50;;
1020;SDS011;499;42.648;23.270;2022-10-31T04:11:59;1.90;;;1.40;;
1020;SDS011;499;42.648;23.270;2022-10-31T04:14:28;1.53;;;1.23;;
1020;SDS011;499;42.648;23.270;2022-10-31T04:16:57;1.77;;;1.10;;
1020;SDS011;499;42.648;23.270;2022-10-31T04:19:25;1.90;;;1.30;;
1020;SDS011;499;42.648;23.270;2022-10-31T04:21:52;1.73;;;1.00;;
1020;SDS011;499;42.648;23.270;2022-10-31T04:24:21;1.33;;;0.90;;
1020;SDS011;499;42.648;23.270;2022-10-31T04:26:48;1.77;;;1.40;;
1020;SDS011;499;42.648;23.270;2022-10-31T04:29:15;2.10;;;1.60;;
1020;SDS011;499;42.648;23.270;2022-10-31T04:31:42;1.83;;;1.30;;
1020;SDS011;499;42.648;23.270;2022-10-31T04:34:09;1.57;;;1.10;;
1020;SDS011;499;42.648;23.270;2022-10-31T04:36:36;1.77;;;1.40;;
1020;SDS011;499;42.648;23.270;2022-10-31T04:39:03;2.03;;;1.50;;
1020;SDS011;499;42.648;23.270;2022-10-31T04:41:32;1.90;;;1.23;;
1020;SDS011;499;42.648;23.270;2022-10-31T04:43:59;1.80;;;1.43;;
1020;SDS011;499;42.648;23.270;2022-10-31T04:46:26;2.73;;;1.70;;
1020;SDS011;499;42.648;23.270;2022-10-31T04:48:53;2.20;;;1.80;;
1020;SDS011;499;42.648;23.270;2022-10-31T04:51:20;1.80;;;1.70;;
1020;SDS011;499;42.648;23.270;2022-10-31T04:53:47;2.30;;;1.50;;
1020;SDS011;499;42.648;23.270;2022-10-31T04:56:14;2.50;;;1.53;;
1020;SDS011;499;42.648;23.270;2022-10-31T04:58:43;2.77;;;1.80;;
1020;SDS011;499;42.648;23.270;2022-10-31T05:01:10;1.90;;;1.50;;
1020;SDS011;499;42.648;23.270;2022-10-31T05:03:37;1.47;;;1.37;;
1020;SDS011;499;42.648;23.270;2022-10-31T05:06:04;2.47;;;2.13;;
1020;SDS011;499;42.648;23.270;2022-10-31T05:08:31;1.90;;;1.73;;
1020;SDS011;499;42.648;23.270;2022-10-31T05:10:59;2.90;;;1.67;;
1020;SDS011;499;42.648;23.270;2022-10-31T05:13:27;2.20;;;2.00;;
1020;SDS011;499;42.648;23.270;2022-10-31T05:15:55;2.57;;;1.77;;
1020;SDS011;499;42.648;23.270;2022-10-31T05:18:22;2.20;;;2.00;;
1020;SDS011;499;42.648;23.270;2022-10-31T05:20:49;2.60;;;2.00;;
1020;SDS011;499;42.648;23.270;2022-10-31T05:23:16;2.40;;;2.17;;
1020;SDS011;499;42.648;23.270;2022-10-31T05:25:44;2.10;;;1.90;;
1020;SDS011;499;42.648;23.270;2022-10-31T05:28:11;2.70;;;2.20;;
1020;SDS011;499;42.648;23.270;2022-10-31T05:30:38;2.40;;;1.67;;
1020;SDS011;499;42.648;23.270;2022-10-31T05:33:06;2.43;;;2.20;;
1020;SDS011;499;42.648;23.270;2022-10-31T05:35:33;2.53;;;1.90;;
1020;SDS011;499;42.648;23.270;2022-10-31T05:38:00;1.93;;;1.73;;
1020;SDS011;499;42.648;23.270;2022-10-31T05:40:28;2.77;;;2.47;;
1020;SDS011;499;42.648;23.270;2022-10-31T05:42:55;3.53;;;2.47;;
1020;SDS011;499;42.648;23.270;2022-10-31T05:45:23;3.47;;;2.27;;
1020;SDS011;499;42.648;23.270;2022-10-31T05:47:51;2.87;;;2.10;;
1020;SDS011;499;42.648;23.270;2022-10-31T05:50:21;2.67;;;2.10;;
1020;SDS011;499;42.648;23.270;2022-10-31T05:52:53;2.30;;;1.80;;
1020;SDS011;499;42.648;23.270;2022-10-31T05:55:21;3.27;;;2.03;;
1020;SDS011;499;42.648;23.270;2022-10-31T05:57:48;2.80;;;2.60;;
1020;SDS011;499;42.648;23.270;2022-10-31T06:00:16;2.93;;;2.43;;
1020;SDS011;499;42.648;23.270;2022-10-31T06:02:43;2.30;;;2.10;;
1020;SDS011;499;42.648;23.270;2022-10-31T06:05:10;4.00;;;2.97;;
1020;SDS011;499;42.648;23.270;2022-10-31T06:07:39;3.30;;;2.60;;
1020;SDS011;499;42.648;23.270;2022-10-31T06:10:06;4.20;;;3.07;;
1020;SDS011;499;42.648;23.270;2022-10-31T06:12:34;4.80;;;3.17;;
1020;SDS011;499;42.648;23.270;2022-10-31T06:15:03;4.10;;;3.70;;
1020;SDS011;499;42.648;23.270;2022-10-31T06:17:31;4.40;;;3.23;;
1020;SDS011;499;42.648;23.270;2022-10-31T06:19:59;4.90;;;3.67;;
1020;SDS011;499;42.648;23.270;2022-10-31T06:22:27;4.60;;;4.20;;
1020;SDS011;499;42.648;23.270;2022-10-31T06:24:55;4.20;;;3.43;;
1020;SDS011;499;42.648;23.270;2022-10-31T06:27:22;2.70;;;2.40;;
1020;SDS011;499;42.648;23.270;2022-10-31T06:29:50;3.60;;;2.97;;
1020;SDS011;499;42.648;23.270;2022-10-31T06:32:17;4.33;;;3.77;;
1020;SDS011;499;42.648;23.270;2022-10-31T06:34:45;2.90;;;2.60;;
1020;SDS011;499;42.648;23.270;2022-10-31T06:37:14;4.23;;;3.33;;
1020;SDS011;499;42.648;23.270;2022-10-31T06:39:41;3.90;;;3.47;;
1020;SDS011;499;42.648;23.270;2022-10-31T06:42:10;4.43;;;4.03;;
1020;SDS011;499;42.648;23.270;2022-10-31T06:44:37;3.50;;;3.20;;
1020;SDS011;499;42.648;23.270;2022-10-31T06:47:05;3.87;;;2.50;;
1020;SDS011;499;42.648;23.270;2022-10-31T06:49:32;3.80;;;3.37;;
1020;SDS011;499;42.648;23.270;2022-10-31T06:52:00;3.37;;;2.90;;
1020;SDS011;499;42.648;23.270;2022-10-31T06:54:27;4.10;;;3.43;;
1020;SDS011;499;42.648;23.270;2022-10-31T06:56:54;3.60;;;3.30;;
1020;SDS011;499;42.648;23.270;2022-10-31T06:59:23;3.60;;;2.87;;
1020;SDS011;499;42.648;23.270;2022-10-31T07:01:50;4.47;;;3.67;;
1020;SDS011;499;42.648;23.270;2022-10-31T07:04:17;4.17;;;3.07;;
1020;SDS011;499;42.648;23.270;2022-10-31T07:06:44;4.43;;;3.93;;
1020;SDS011;499;42.648;23.270;2022-10-31T07:09:11;4.13;;;3.73;;
1020;SDS011;499;42.648;23.270;2022-10-31T07:11:38;3.80;;;3.13;;
1020;SDS011;499;42.648;23.270;2022-10-31T07:14:05;4.33;;;3.03;;
1020;SDS011;499;42.648;23.270;2022-10-31T07:16:34;4.77;;;4.10;;
1020;SDS011;499;42.648;23.270;2022-10-31T07:19:01;3.80;;;3.47;;
1020;SDS011;499;42.648;23.270;2022-10-31T07:21:28;5.70;;;4.13;;
1020;SDS011;499;42.648;23.270;2022-10-31T07:23:55;4.07;;;3.57;;
1020;SDS011;499;42.648;23.270;2022-10-31T07:26:22;4.70;;;4.03;;
1020;SDS011;499;42.648;23.270;2022-10-31T07:28:49;3.83;;;3.30;;
1020;SDS011;499;42.648;23.270;2022-10-31T07:31:16;5.43;;;4.20;;
1020;SDS011;499;42.648;23.270;2022-10-31T07:33:45;5.20;;;3.70;;
1020;SDS011;499;42.648;23.270;2022-10-31T07:36:12;4.80;;;4.03;;
1020;SDS011;499;42.648;23.270;2022-10-31T07:38:39;5.70;;;3.93;;
1020;SDS011;499;42.648;23.270;2022-10-31T07:41:06;4.00;;;3.23;;
1020;SDS011;499;42.648;23.270;2022-10-31T07:43:33;3.93;;;3.23;;
1020;SDS011;499;42.648;23.270;2022-10-31T07:46:00;4.90;;;3.60;;
1020;SDS011;499;42.648;23.270;2022-10-31T07:48:27;4.27;;;3.87;;
1020;SDS011;499;42.648;23.270;2022-10-31T07:50:56;3.30;;;3.00;;
1020;SDS011;499;42.648;23.270;2022-10-31T07:53:23;4.10;;;3.70;;
1020;SDS011;499;42.648;23.270;2022-10-31T07:55:50;6.93;;;5.30;;
1020;SDS011;499;42.648;23.270;2022-10-31T07:58:17;4.23;;;3.83;;
1020;SDS011;499;42.648;23.270;2022-10-31T08:00:45;5.10;;;3.63;;
1020;SDS011;499;42.648;23.270;2022-10-31T08:03:14;6.00;;;4.20;;
1020;SDS011;499;42.648;23.270;2022-10-31T08:05:42;4.30;;;3.20;;
1020;SDS011;499;42.648;23.270;2022-10-31T08:08:12;3.33;;;3.03;;
1020;SDS011;499;42.648;23.270;2022-10-31T08:10:40;4.70;;;4.10;;
1020;SDS011;499;42.648;23.270;2022-10-31T08:13:08;3.70;;;3.20;;
1020;SDS011;499;42.648;23.270;2022-10-31T08:15:36;4.70;;;3.90;;
1020;SDS011;499;42.648;23.270;2022-10-31T08:18:05;4.90;;;3.30;;
1020;SDS011;499;42.648;23.270;2022-10-31T08:20:32;3.37;;;2.70;;
1020;SDS011;499;42.648;23.270;2022-10-31T08:23:00;4.80;;;3.40;;
1020;SDS011;499;42.648;23.270;2022-10-31T08:25:30;3.80;;;3.13;;
1020;SDS011;499;42.648;23.270;2022-10-31T08:27:58;4.30;;;3.40;;
1020;SDS011;499;42.648;23.270;2022-10-31T08:30:26;4.17;;;3.33;;
1020;SDS011;499;42.648;23.270;2022-10-31T08:33:01;3.83;;;3.47;;
1020;SDS011;499;42.648;23.270;2022-10-31T08:35:29;4.57;;;3.97;;
1020;SDS011;499;42.648;23.270;2022-10-31T08:37:57;3.00;;;2.67;;
1020;SDS011;499;42.648;23.270;2022-10-31T08:40:25;3.10;;;2.70;;
1020;SDS011;499;42.648;23.270;2022-10-31T08:42:59;3.70;;;2.97;;
1020;SDS011;499;42.648;23.270;2022-10-31T08:45:27;3.83;;;3.40;;
1020;SDS011;499;42.648;23.270;2022-10-31T08:47:58;3.20;;;2.90;;
1020;SDS011;499;42.648;23.270;2022-10-31T08:50:26;4.00;;;3.23;;
1020;SDS011;499;42.648;23.270;2022-10-31T08:52:59;3.57;;;2.83;;
1020;SDS011;499;42.648;23.270;2022-10-31T08:55:27;3.10;;;2.90;;
1020;SDS011;499;42.648;23.270;2022-10-31T08:57:55;3.40;;;2.73;;
1020;SDS011;499;42.648;23.270;2022-10-31T09:00:24;3.73;;;2.70;;
1020;SDS011;499;42.648;23.270;2022-10-31T09:02:55;3.33;;;2.47;;
1020;SDS011;499;42.648;23.270;2022-10-31T09:05:23;3.37;;;2.70;;
1020;SDS011;499;42.648;23.270;2022-10-31T09:07:50;3.23;;;2.53;;
1020;SDS011;499;42.648;23.270;2022-10-31T09:10:21;3.60;;;3.20;;
1020;SDS011;499;42.648;23.270;2022-10-31T09:12:54;2.57;;;2.17;;
1020;SDS011;499;42.648;23.270;2022-10-31T09:15:21;3.27;;;2.50;;
1020;SDS011;499;42.648;23.270;2022-10-31T09:17:50;2.50;;;2.03;;
1020;SDS011;499;42.648;23.270;2022-10-31T09:20:17;2.60;;;2.20;;
1020;SDS011;499;42.648;23.270;2022-10-31T09:22:44;3.70;;;2.57;;
1020;SDS011;499;42.648;23.270;2022-10-31T09:25:11;1.93;;;1.43;;
1020;SDS011;499;42.648;23.270;2022-10-31T09:27:38;3.20;;;2.57;;
1020;SDS011;499;42.648;23.270;2022-10-31T09:30:06;3.13;;;2.53;;
1020;SDS011;499;42.648;23.270;2022-10-31T09:32:33;2.63;;;2.27;;
1020;SDS011;499;42.648;23.270;2022-10-31T09:35:02;2.33;;;1.80;;
1020;SDS011;499;42.648;23.270;2022-10-31T09:37:29;3.20;;;2.70;;
1020;SDS011;499;42.648;23.270;2022-10-31T09:39:57;2.63;;;1.87;;
1020;SDS011;499;42.648;23.270;2022-10-31T09:42:33;4.00;;;2.27;;
1020;SDS011;499;42.648;23.270;2022-10-31T09:45:18;2.37;;;1.93;;
1020;SDS011;499;42.648;23.270;2022-10-31T09:47:54;2.80;;;1.73;;
1020;SDS011;499;42.648;23.270;2022-10-31T09:50:38;2.47;;;1.93;;
1020;SDS011;499;42.648;23.270;2022-10-31T09:53:15;1.80;;;1.23;;
1020;SDS011;499;42.648;23.270;2022-10-31T09:55:48;2.37;;;1.80;;
1020;SDS011;499;42.648;23.270;2022-10-31T09:58:18;2.83;;;1.70;;
1020;SDS011;499;42.648;23.270;2022-10-31T10:00:49;2.40;;;2.10;;
1020;SDS011;499;42.648;23.270;2022-10-31T10:03:19;2.63;;;2.23;;
1020;SDS011;499;42.648;23.270;2022-10-31T10:05:57;1.97;;;1.43;;
1020;SDS011;499;42.648;23.270;2022-10-31T10:08:31;2.57;;;1.70;;
1020;SDS011;499;42.648;23.270;2022-10-31T10:11:04;2.77;;;1.40;;
1020;SDS011;499;42.648;23.270;2022-10-31T10:13:45;1.27;;;0.87;;
1020;SDS011;499;42.648;23.270;2022-10-31T10:16:24;1.93;;;1.20;;
1020;SDS011;499;42.648;23.270;2022-10-31T10:19:09;1.50;;;0.80;;
1020;SDS011;499;42.648;23.270;2022-10-31T10:21:46;1.27;;;0.83;;
1020;SDS011;499;42.648;23.270;2022-10-31T10:24:36;1.53;;;0.87;;
1020;SDS011;499;42.648;23.270;2022-10-31T10:27:17;2.03;;;0.90;;
1020;SDS011;499;42.648;23.270;2022-10-31T10:29:51;2.00;;;1.27;;
1020;SDS011;499;42.648;23.270;2022-10-31T10:32:25;1.30;;;0.90;;
1020;SDS011;499;42.648;23.270;2022-10-31T10:34:54;2.70;;;1.20;;
1020;SDS011;499;42.648;23.270;2022-10-31T10:37:28;1.30;;;0.80;;
1020;SDS011;499;42.648;23.270;2022-10-31T10:40:01;2.13;;;1.50;;
1020;SDS011;499;42.648;23.270;2022-10-31T10:42:34;1.30;;;0.97;;
1020;SDS011;499;42.648;23.270;2022-10-31T10:45:19;2.13;;;1.33;;
1020;SDS011;499;42.648;23.270;2022-10-31T10:48:10;1.20;;;0.50;;
1020;SDS011;499;42.648;23.270;2022-10-31T10:50:41;1.50;;;0.73;;
1020;SDS011;499;42.648;23.270;2022-10-31T10:53:18;1.93;;;0.63;;
1020;SDS011;499;42.648;23.270;2022-10-31T10:56:04;1.10;;;0.60;;
1020;SDS011;499;42.648;23.270;2022-10-31T10:58:41;1.30;;;0.70;;
1020;SDS011;499;42.648;23.270;2022-10-31T11:01:10;1.60;;;0.93;;
1020;SDS011;499;42.648;23.270;2022-10-31T11:03:39;1.30;;;0.80;;
1020;SDS011;499;42.648;23.270;2022-10-31T11:06:15;1.20;;;0.80;;
1020;SDS011;499;42.648;23.270;2022-10-31T11:08:48;1.40;;;0.83;;
1020;SDS011;499;42.648;23.270;2022-10-31T11:11:19;1.20;;;0.70;;
1020;SDS011;499;42.648;23.270;2022-10-31T11:13:52;1.30;;;0.80;;
1020;SDS011;499;42.648;23.270;2022-10-31T11:16:28;2.43;;;0.83;;
1020;SDS011;499;42.648;23.270;2022-10-31T11:19:07;1.30;;;0.60;;
1020;SDS011;499;42.648;23.270;2022-10-31T11:21:40;1.53;;;0.70;;
1020;SDS011;499;42.648;23.270;2022-10-31T11:24:16;1.50;;;0.83;;
1020;SDS011;499;42.648;23.270;2022-10-31T11:26:45;1.40;;;0.63;;
1020;SDS011;499;42.648;23.270;2022-10-31T11:29:15;1.43;;;1.30;;
1020;SDS011;499;42.648;23.270;2022-10-31T11:31:44;1.10;;;0.50;;
1020;SDS011;499;42.648;23.270;2022-10-31T11:34:14;1.83;;;1.13;;
1020;SDS011;499;42.648;23.270;2022-10-31T11:36:48;1.20;;;0.80;;
1020;SDS011;499;42.648;23.270;2022-10-31T11:39:18;1.40;;;1.00;;
1020;SDS011;499;42.648;23.270;2022-10-31T11:41:49;1.77;;;0.97;;
1020;SDS011;499;42.648;23.270;2022-10-31T11:44:18;1.17;;;0.70;;
1020;SDS011;499;42.648;23.270;2022-10-31T11:46:47;1.40;;;0.73;;
1020;SDS011;499;42.648;23.270;2022-10-31T11:49:16;1.20;;;0.70;;
1020;SDS011;499;42.648;23.270;2022-10-31T11:51:47;1.30;;;0.60;;
1020;SDS011;499;42.648;23.270;2022-10-31T11:54:20;1.50;;;1.20;;
1020;SDS011;499;42.648;23.270;2022-10-31T11:56:49;2.53;;;1.00;;
1020;SDS011;499;42.648;23.270;2022-10-31T11:59:18;1.70;;;0.70;;
1020;SDS011;499;42.648;23.270;2022-10-31T12:01:51;1.27;;;0.70;;
1020;SDS011;499;42.648;23.270;2022-10-31T12:04:22;1.50;;;0.80;;
1020;SDS011;499;42.648;23.270;2022-10-31T12:06:56;1.47;;;0.80;;
1020;SDS011;499;42.648;23.270;2022-10-31T12:09:26;1.30;;;0.70;;
1020;SDS011;499;42.648;23.270;2022-10-31T12:15:00;1.47;;;0.83;;
1020;SDS011;499;42.648;23.270;2022-10-31T12:17:44;1.20;;;0.60;;
1020;SDS011;499;42.648;23.270;2022-10-31T12:20:19;1.87;;;1.00;;
1020;SDS011;499;42.648;23.270;2022-10-31T12:22:54;1.33;;;0.73;;
1020;SDS011;499;42.648;23.270;2022-10-31T12:25:36;1.63;;;0.57;;
1020;SDS011;499;42.648;23.270;2022-10-31T12:28:17;1.60;;;0.90;;
1020;SDS011;499;42.648;23.270;2022-10-31T12:31:14;1.43;;;0.70;;
1020;SDS011;499;42.648;23.270;2022-10-31T12:34:03;1.90;;;1.33;;
1020;SDS011;499;42.648;23.270;2022-10-31T12:36:47;1.60;;;1.20;;
1020;SDS011;499;42.648;23.270;2022-10-31T12:39:25;1.43;;;0.83;;
1020;SDS011;499;42.648;23.270;2022-10-31T12:42:07;1.63;;;1.00;;
1020;SDS011;499;42.648;23.270;2022-10-31T12:44:52;1.30;;;0.80;;
1020;SDS011;499;42.648;23.270;2022-10-31T12:50:24;1.33;;;0.80;;
1020;SDS011;499;42.648;23.270;2022-10-31T12:53:02;1.33;;;0.83;;
1020;SDS011;499;42.648;23.270;2022-10-31T12:55:41;1.30;;;0.73;;
1020;SDS011;499;42.648;23.270;2022-10-31T12:58:19;1.73;;;0.87;;
1020;SDS011;499;42.648;23.270;2022-10-31T13:00:51;1.17;;;0.60;;
1020;SDS011;499;42.648;23.270;2022-10-31T13:03:30;1.30;;;0.63;;
1020;SDS011;499;42.648;23.270;2022-10-31T13:06:02;1.83;;;1.20;;
1020;SDS011;499;42.648;23.270;2022-10-31T13:08:34;1.43;;;0.70;;
1020;SDS011;499;42.648;23.270;2022-10-31T13:11:08;2.43;;;1.60;;
1020;SDS011;499;42.648;23.270;2022-10-31T13:13:41;1.60;;;1.07;;
1020;SDS011;499;42.648;23.270;2022-10-31T13:16:12;2.17;;;0.83;;
1020;SDS011;499;42.648;23.270;2022-10-31T13:18:44;2.00;;;1.37;;
1020;SDS011;499;42.648;23.270;2022-10-31T13:21:16;3.10;;;1.00;;
1020;SDS011;499;42.648;23.270;2022-10-31T13:23:46;1.50;;;1.00;;
1020;SDS011;499;42.648;23.270;2022-10-31T13:26:21;1.30;;;0.80;;
1020;SDS011;499;42.648;23.270;2022-10-31T13:29:04;2.00;;;0.90;;
1020;SDS011;499;42.648;23.270;2022-10-31T13:31:39;1.50;;;0.90;;
1020;SDS011;499;42.648;23.270;2022-10-31T13:34:09;2.00;;;1.80;;
1020;SDS011;499;42.648;23.270;2022-10-31T13:36:43;1.40;;;1.03;;
1020;SDS011;499;42.648;23.270;2022-10-31T13:39:20;2.57;;;1.50;;
1020;SDS011;499;42.648;23.270;2022-10-31T13:41:54;1.67;;;0.90;;
1020;SDS011;499;42.648;23.270;2022-10-31T13:44:28;1.70;;;1.10;;
1020;SDS011;499;42.648;23.270;2022-10-31T13:46:56;2.20;;;1.47;;
1020;SDS011;499;42.648;23.270;2022-10-31T13:49:25;1.83;;;1.10;;
1020;SDS011;499;42.648;23.270;2022-10-31T13:52:13;1.93;;;0.97;;
1020;SDS011;499;42.648;23.270;2022-10-31T13:54:43;2.30;;;1.53;;
1020;SDS011;499;42.648;23.270;2022-10-31T13:57:16;1.50;;;1.00;;
1020;SDS011;499;42.648;23.270;2022-10-31T13:59:49;1.10;;;0.70;;
1020;SDS011;499;42.648;23.270;2022-10-31T14:02:19;1.67;;;1.43;;
1020;SDS011;499;42.648;23.270;2022-10-31T14:04:51;1.80;;;1.50;;
1020;SDS011;499;42.648;23.270;2022-10-31T14:07:22;1.30;;;0.80;;
1020;SDS011;499;42.648;23.270;2022-10-31T14:09:52;2.30;;;1.40;;
1020;SDS011;499;42.648;23.270;2022-10-31T14:12:23;1.70;;;1.00;;
1020;SDS011;499;42.648;23.270;2022-10-31T14:14:57;1.67;;;1.30;;
1020;SDS011;499;42.648;23.270;2022-10-31T14:17:31;1.93;;;1.43;;
1020;SDS011;499;42.648;23.270;2022-10-31T14:20:21;1.70;;;1.20;;
1020;SDS011;499;42.648;23.270;2022-10-31T14:22:51;1.90;;;1.30;;
1020;SDS011;499;42.648;23.270;2022-10-31T14:25:25;2.27;;;1.33;;
1020;SDS011;499;42.648;23.270;2022-10-31T14:27:53;1.40;;;0.90;;
1020;SDS011;499;42.648;23.270;2022-10-31T14:30:23;1.87;;;1.40;;
1020;SDS011;499;42.648;23.270;2022-10-31T14:32:52;1.93;;;1.23;;
1020;SDS011;499;42.648;23.270;2022-10-31T14:35:24;1.40;;;1.07;;
1020;SDS011;499;42.648;23.270;2022-10-31T14:40:54;2.80;;;1.70;;
1020;SDS011;499;42.648;23.270;2022-10-31T14:43:41;1.30;;;0.90;;
1020;SDS011;499;42.648;23.270;2022-10-31T14:46:23;1.60;;;0.90;;
1020;SDS011;499;42.648;23.270;2022-10-31T14:49:02;1.30;;;0.77;;
1020;SDS011;499;42.648;23.270;2022-10-31T14:51:40;1.80;;;1.20;;
1020;SDS011;499;42.648;23.270;2022-10-31T14:54:13;1.57;;;0.90;;
1020;SDS011;499;42.648;23.270;2022-10-31T14:56:43;2.77;;;2.33;;
1020;SDS011;499;42.648;23.270;2022-10-31T14:59:18;2.17;;;1.20;;
1020;SDS011;499;42.648;23.270;2022-10-31T15:01:53;1.87;;;1.60;;
1020;SDS011;499;42.648;23.270;2022-10-31T15:04:24;1.67;;;1.07;;
1020;SDS011;499;42.648;23.270;2022-10-31T15:06:54;1.60;;;1.00;;
1020;SDS011;499;42.648;23.270;2022-10-31T15:09:28;1.40;;;0.93;;
1020;SDS011;499;42.648;23.270;2022-10-31T15:11:57;1.40;;;1.00;;
1020;SDS011;499;42.648;23.270;2022-10-31T15:14:26;1.87;;;1.03;;
1020;SDS011;499;42.648;23.270;2022-10-31T15:16:56;1.17;;;0.80;;
1020;SDS011;499;42.648;23.270;2022-10-31T15:19:26;1.60;;;1.10;;
1020;SDS011;499;42.648;23.270;2022-10-31T15:21:55;1.97;;;1.20;;
1020;SDS011;499;42.648;23.270;2022-10-31T15:24:24;1.40;;;1.03;;
1020;SDS011;499;42.648;23.270;2022-10-31T15:26:58;1.80;;;1.10;;
1020;SDS011;499;42.648;23.270;2022-10-31T15:29:26;1.40;;;1.10;;
1020;SDS011;499;42.648;23.270;2022-10-31T15:31:54;1.47;;;1.13;;
1020;SDS011;499;42.648;23.270;2022-10-31T15:34:25;1.50;;;1.10;;
1020;SDS011;499;42.648;23.270;2022-10-31T15:36:57;1.73;;;1.37;;
1020;SDS011;499;42.648;23.270;2022-10-31T15:39:24;1.73;;;1.20;;
1020;SDS011;499;42.648;23.270;2022-10-31T15:41:52;1.90;;;1.50;;
1020;SDS011;499;42.648;23.270;2022-10-31T15:44:30;1.70;;;1.10;;
1020;SDS011;499;42.648;23.270;2022-10-31T15:47:01;2.10;;;1.30;;
1020;SDS011;499;42.648;23.270;2022-10-31T15:49:31;1.47;;;0.90;;